Main page
METAR-TAF:

METAR-TAF

Airports :

Isles of Scilly, England

St Mary's Airport

latitude: 49-55N, longitude: 006-18W, elevation: 31 m

Current weather observation

The report was made 9 hours and 20 minutes ago, at 16:50 UTC
Wind 10 kt from the West/Northwest
Temperature 15°C
Humidity 77%
Pressure 1001 hPa
Visibility 10 km or more
Few clouds at a height of 1400 ft

METAR: EGHE 281650Z 29010KT 9999 FEW014 15/11 Q1001

Time: 03:10 (02:10 UTC)

Forecast

The report was made 12 hours and 12 minutes ago, at 13:58 UTC
Forecast valid from 28 at 15 UTC to 28 at 18 UTC
Wind 12 kt from the West/Northwest
Visibility 10 km or more
Scattered clouds at a height of 1600 ft

TAF: EGHE 281358Z 2815/2818 30012KT 9999 SCT016

Weather observations and forecasts of more than 4000 airports (METAR and TAF reports).

The available stations are represented by yellow and red dots on the map.

Hover mouse over dot to see the name of the station.

Then click to see weather observations and forecasts.

To change the map : click on the green buttons with a black cross to zoom in, on the green button with a dash to zoom out, or on the green arrows for adjacent maps.


METAR-TAF: